Elkins-Randolph Co-Jennings Randolph Field
KEKN : now visible

Aeroporto :











RITROVATECI SU...

 
LOGIN :

Iscrizione | Disclaimer

   EN    FR    IT 

 









Sommario :    VFR   VFR Marginale   IFR   IFR Intensivo   IFR Molto Intensivo
Visibilità : 
Base nubi : 
>= 8 km
>= 3000ft
5 / 8 km
1000 / 3000 ft
1500m / 5 km
500 / 1000 ft
800 / 1500m
200 / 500 ft
< 800m
< 200 ft
Simboli :   Temporali  Nebbia  Neve Forte  Precipitazioni Forti  Vento > 20 kt






- Altitudine del aeroporto : 1987 ft


KEKN - Elkins-Randolph Co-Jennings Randolph Field

ULTIMO METAR :
  • 150351Z AUTO 00000KT 10SM CLR 04/02 A3016 RMK AO2 SLP221 T00440022

METARs OBSOLETI :
  • 150251Z AUTO 00000KT 10SM CLR 05/02 A3015 RMK AO2 SLP216 T00500022 51017
  • 150151Z AUTO 00000KT 10SM CLR 06/03 A3014 RMK AO2 SLP214 T00560028

TAF KEKN
Valido dal 15 a 03 ore il 16 a 00 ore UTC


150244Z 1503/1524 00000KT P6SM SKC
FM150600 00000KT 5SM BR FEW250
FM150900 00000KT 2SM BR FEW001
FM151200 00000KT 1 1/2SM BR FEW001
FM151400 00000KT P6SM FEW250



MetMap, La meteo Aeronautica in un colpo d'occhio ! - Copyright ORBIFLY Dicembre 2007 - Disclaimer

ORBIFLY MET'MAP TEAM :

Programmazione e sviluppo : Alexandra Zaïnal
Concezione e sviluppo : Baudouin d'Aumeries
Co-Programmazione e sviluppo : Marc-Olivier Méhu
Supporto tecnico e logistico : Manuel Goepfert
Aiuto per la traduzione : Arnaldo La Scala

Contatto : metmap@orbifly.com




FONTI E CREDITI :

   NOAA       Earth
Advisory